秒答网

 找回密码
 注册秒答

QQ登录

只需一步,快速开始

搜索
热搜: 价格查询
收藏本版 (6919)

工科综合 今日: 0|主题: 19891|排名: 1 

作者 回复/查看 最后发表
[2k以上] 2000元以上,用smm框架做个网站 来自手机客户端 合作共赢 2019-5-19 0119 合作共赢 2019-5-19 20:23
[2k以上] 2000元,Matlab模拟,只管模拟是嘛 attach_img 合作共赢 2019-5-19 1126 合作共赢 2019-5-20 09:10
[1k以下] 400元,eviews做β收敛,因为数据 来自手机客户端 合作共赢 2019-5-19 046 合作共赢 2019-5-19 19:33
[3k以上] 3000元,用MATLAB软件实现一个信号时差频差估计 来自手机客户端 合作共赢 2019-5-19 169 合作共赢 2019-5-19 19:22
[1k以下] 1000元,c语言,已知四个公式,输入U 来自手机客户端 合作共赢 2019-5-19 4106 treenewbee 2019-5-19 18:32
[1k以上] 1000元,python做随机森林,交通 来自手机客户端 合作共赢 2019-5-19 392 合作共赢 2019-5-19 18:17
[5k以上] 5000元以上,matlab求这个弹簧阻尼系统的相应曲线 来自手机客户端 合作共赢 2019-5-19 4110 合作共赢 2019-5-19 16:47
[1k以上] 1000元,代做神经网络吗 来自手机客户端 合作共赢 2019-5-19 0178 合作共赢 2019-5-19 16:14
[3k以上] 3000元,labwindows/cvi attach_img 合作共赢 2019-5-19 177 合作共赢 2019-5-19 16:00
[5k以上] 5000元,Matlab程序代写加急单你们接吗 来自手机客户端 合作共赢 2019-5-19 159 合作共赢 2019-5-19 15:57
[1k以下] 600元,使用ANSYS做一个宏观3D的 来自手机客户端 合作共赢 2019-5-19 164 合作共赢 2019-5-19 16:02
[1k以下] 400元以上,python代做 attach_img 来自手机客户端 合作共赢 2019-5-19 3148 treenewbee 2019-5-19 18:01
[4k以上] 4000元以上,用粗糙集和支持向量机,在matlab里仿真 来自手机客户端 合作共赢 2019-5-19 233 合作共赢 2019-5-19 19:36
[2k以上] 2000元,Matlab 步态识别 来自手机客户端 合作共赢 2019-5-19 153 小毛兔 2019-5-19 15:33
[2k以上] 2000元,数学建模 来自手机客户端 合作共赢 2019-5-19 0151 合作共赢 2019-5-19 14:19
[2k以上] 2000元,Matlab做一个压缩空气储能的仿真 attach_img 来自手机客户端 合作共赢 2019-5-19 171 合作共赢 2019-5-19 21:22
[1k以上] 1000元,根据garch 模型改的 里面加了jump 因子 来自手机客户端 合作共赢 2019-5-19 136 合作共赢 2019-5-19 13:57
[1k以下] 600元,gms三维地下水模拟和溶质运移 来自手机客户端 合作共赢 2019-5-19 042 合作共赢 2019-5-19 13:18
[1k以下] 700元,Python基于时序数据库,建 来自手机客户端 合作共赢 2019-5-19 167 合作共赢 2019-5-19 13:20
[1k以上] 1000元以上,基于labview的音乐喷泉 来自手机客户端 合作共赢 2019-5-19 080 合作共赢 2019-5-19 13:07
[2k以上] 2000元,F#能做么?F#的程序 来自手机客户端 合作共赢 2019-5-19 243 合作共赢 2019-5-19 13:05
[2k以上] 2000元,DNDC模拟农田点位尺度的N2O排放能做吗 来自手机客户端 合作共赢 2019-5-19 057 合作共赢 2019-5-19 12:27
[1k以上] 1000元,操作swat遇到问题想找技术员帮忙解决 来自手机客户端 合作共赢 2019-5-19 154 合作共赢 2019-5-19 12:15
[1k以上] 1000元,opencv做汽车保险杠色差识别系统 来自手机客户端 合作共赢 2019-5-19 155 合作共赢 2019-5-19 11:59
[1k以上] 1000元左右,U-Net神经网络的图像分割 来自手机客户端 合作共赢 2019-5-19 258 合作共赢 2019-5-19 11:58
[2k以上] 1500元,matlab做基于rbf的波束形成 attach_img 来自手机客户端 合作共赢 2019-5-19 152 合作共赢 2019-5-19 11:39
[3k以上] 3000元,matlab代码能修改吗,史密斯圆图 来自手机客户端 合作共赢 2019-5-19 255 合作共赢 2019-5-19 11:03
[3k以上] 3500元,元胞自动机对交叉口的行人和车辆冲突仿真 来自手机客户端 合作共赢 2019-5-19 052 合作共赢 2019-5-19 10:30
[2k以上] 2000元以上,能用matlab做深度学习吗 来自手机客户端 合作共赢 2019-5-19 158 合作共赢 2019-5-19 15:46
[1k以上] 1000元以上,matlab求一个稳定值和稳定的曲线 来自手机客户端 合作共赢 2019-5-19 165 topmati 2019-5-19 10:21
[1k以下] 400元,matlab,只要代码,季节调 来自手机客户端 合作共赢 2019-5-19 049 合作共赢 2019-5-19 10:00
[2k以上] 2000元,用遗传算法改进BP神经网络来做 来自手机客户端 合作共赢 2019-5-19 267 合作共赢 2019-5-19 10:22
[1k以下] 400元以上,matlab遗传算法做最优解 来自手机客户端 合作共赢 2019-5-19 167 媛宝宝 2019-5-19 10:34
[1k以下] 500元,但是机器性能太菜跑不起来 来自手机客户端 合作共赢 2019-5-19 292 合作共赢 2019-5-19 09:25
[5k以上] 5000元,做一个图像相似度检测软件,目的是检测产品的外观相似度 来自手机客户端 合作共赢 2019-5-19 179 合作共赢 2019-5-19 09:21
[5k以上] 5000元以上,就是实时查看全国航班的延误信息 来自手机客户端 合作共赢 2019-5-19 374 合作共赢 2019-5-19 10:06
[1k以上] 1000元以上,matlab机器视觉汽车仪表盘读数 attach_img 合作共赢 2019-5-19 146 合作共赢 2019-5-19 09:04
[1k以上] 1200元,matlab果蝇优化算法电力系统 来自手机客户端 合作共赢 2019-5-19 147 合作共赢 2019-5-19 08:56
[1k以上] 1000元,LSTM预测代做有数据集有一 来自手机客户端 合作共赢 2019-5-19 159 合作共赢 2019-5-19 08:49
[2k以上] 2000元,做一个大学生公益众筹网站,功 来自手机客户端 合作共赢 2019-5-19 077 合作共赢 2019-5-19 00:05
[3k以上] 3k,识别银行卡号+界面 来自手机客户端 合作共赢 2019-5-18 5132 合作共赢 2019-5-19 08:21
[1k以上] 1000元以上,MATLAB转速仿真 attach_img 合作共赢 2019-5-18 193 合作共赢 2019-5-19 08:18
[3k以上] 3000元,FDTD软件光镊,把光源导入到此为激发的SPPs场 来自手机客户端 合作共赢 2019-5-18 158 合作共赢 2019-5-20 22:08
[1k以上] 1000元,用slmnlink建模做pid的仿真 来自手机客户端 合作共赢 2019-5-18 073 合作共赢 2019-5-18 21:19
[1k以上] 1000元,谷歌新闻爬虫可以做吗 来自手机客户端 合作共赢 2019-5-18 286 topmati 2019-5-18 22:55
[2k以上] 2000元以上,图片分类 来自手机客户端 合作共赢 2019-5-18 3106 合作共赢 2019-5-18 20:53
[1k以上] 1000元以上,Python爬虫,想爬这些数据 attach_img 合作共赢 2019-5-18 3115 合作共赢 2019-5-18 23:51
[1k以上] 1000元以上,使用Matlab实现流体力学算法 attach_img 合作共赢 2019-5-18 285 合作共赢 2019-5-18 20:54
[4k以上] 4000元以上,matlab做仿真,基于电导增量法的太阳能 来自手机客户端 合作共赢 2019-5-18 168 合作共赢 2019-5-18 20:55
[2k以上] 2000元,matlab仿真基于三维混沌映射的图像加密算法嘛 来自手机客户端 合作共赢 2019-5-18 157 合作共赢 2019-5-18 20:07
[1k以下] 700元,关联规则的数据挖掘 用aprirori算法 来自手机客户端 合作共赢 2019-5-18 167 合作共赢 2019-5-18 19:31
[1k以下] 500元,关于python 3做predictive analysis的 来自手机客户端 合作共赢 2019-5-18 084 合作共赢 2019-5-18 19:03
[3k以上] 3000元,请问python禁忌搜索可以做吗 来自手机客户端 合作共赢 2019-5-18 389 合作共赢 2019-5-18 18:46
[4k以上] 4000元,空间数据分析处理能python代写 attach_img 来自手机客户端 合作共赢 2019-5-18 1104 合作共赢 2019-5-18 19:31
[3k以上] 3000元以上,电商评论情感分析,word2vec,自注意力机制+bilstm,用tensorflow写 来自手机客户端 合作共赢 2019-5-18 181 合作共赢 2019-5-18 19:10
[5k以上] 5000元,matlab采用边界元的方法来模拟渗流场的流线 来自手机客户端 合作共赢 2019-5-18 180 合作共赢 2019-5-18 18:15
[1k以下] 500元,讲解python程序 来自手机客户端 合作共赢 2019-5-18 158 topmati 2019-5-18 17:52
[1k以上] 1000元,python代做吗 来自手机客户端 合作共赢 2019-5-18 1122 合作共赢 2019-5-18 20:52
[1k以上] 1000元,开发基于OpenGL的并行算法程序 来自手机客户端 合作共赢 2019-5-18 053 合作共赢 2019-5-18 17:34
[3k以上] 3000元,做MATLAB的有限元分析吗 来自手机客户端 合作共赢 2019-5-18 4103 合作共赢 2019-5-18 17:33
[1k以上] 1000元以上,citespace和MySQL做知识图谱 来自手机客户端 合作共赢 2019-5-18 041 合作共赢 2019-5-18 17:23
[1k以下] 500元,matlab做粒子群算法 来自手机客户端 合作共赢 2019-5-18 130 合作共赢 2019-5-18 17:37
[1k以下] 500元,请问fmincon函数可以做吗 来自手机客户端 合作共赢 2019-5-18 126 topmati 2019-5-18 16:37
[1k以下] 1000元,问一下python编程的问题 attach_img 合作共赢 2019-5-18 144 合作共赢 2019-5-18 16:25
[1k以下] 1000元,想找emtp的代做仿真 来自手机客户端 合作共赢 2019-5-18 131 合作共赢 2019-5-18 15:48
[2k以上] 2000元以上,MATLAB基于粒子群算法的机械臂轨迹规划 来自手机客户端 合作共赢 2019-5-18 058 合作共赢 2019-5-18 15:43
[1k以下] 500元,做scratch编程建国70周年的变化及伟大成就 来自手机客户端 合作共赢 2019-5-18 040 合作共赢 2019-5-18 15:31
[1k以上] 1000元,MATLAB做基坑变形监测数据预测 来自手机客户端 合作共赢 2019-5-18 144 合作共赢 2019-5-18 16:09
[2k以上] 2000元,我有vivado文件,要做具 来自手机客户端 合作共赢 2019-5-18 045 合作共赢 2019-5-18 15:18
[1k以上] 1000元以上,液压系统MATLAB仿真 来自手机客户端 合作共赢 2019-5-18 053 合作共赢 2019-5-18 14:50
[1w以上] 3万元,我是想做一款眼镜镜片研磨机,就是把眼镜的镜片拆下来识别形状 来自手机客户端 合作共赢 2019-5-18 085 合作共赢 2019-5-18 14:46
[2k以上] 2000元,想做一款处理电路,单片机 来自手机客户端 合作共赢 2019-5-18 031 合作共赢 2019-5-18 14:33
[1k以下] 400元以上,调试python代码 来自手机客户端 合作共赢 2019-5-18 289 合作共赢 2019-5-18 14:25
[3k以上] 3000元,简笔标记的图像分割 来自手机客户端 合作共赢 2019-5-18 073 合作共赢 2019-5-18 13:48
[3k以上] 3000元,Python医学图像分割,主要是脊柱图像分割 来自手机客户端 合作共赢 2019-5-18 162 合作共赢 2019-5-18 13:56
[2k以上] 2000元以上,可以做mfc界面美化吗 来自手机客户端 合作共赢 2019-5-18 266 合作共赢 2019-5-18 13:57
[1k以下] 600元,matlab做yolov1 v2算法仿真 来自手机客户端 合作共赢 2019-5-18 041 合作共赢 2019-5-18 13:26
[1k以上] 1000元以上,MATLAB做个音乐,帮我编首歌 来自手机客户端 合作共赢 2019-5-18 164 合作共赢 2019-5-18 14:08
[3k以上] 3000元,利用xgboost选股推荐 来自手机客户端 合作共赢 2019-5-18 568 合作共赢 2019-5-19 11:49
[1k以上] 1000元,matlab图像处理边缘强化 来自手机客户端 合作共赢 2019-5-18 164 合作共赢 2019-5-18 12:51
[1k以上] 1000元以上,mfc界面美化 来自手机客户端 合作共赢 2019-5-18 361 合作共赢 2019-5-18 13:57
[1k以下] 500元,基于LM5175升压斩波电路的 来自手机客户端 合作共赢 2019-5-18 036 合作共赢 2019-5-18 11:36
[2k以上] 1500元,微网分时电价下含V2G电动汽车的有序充放电控制策略 来自手机客户端 合作共赢 2019-5-18 246 张海波 2019-5-18 11:26
[2k以上] 2000元,Tensorflow,cnn卷积神经网络,svm代替softmax层,多分类 来自手机客户端 合作共赢 2019-5-18 137 合作共赢 2019-5-18 10:43
[1k以上] 2000元,cadence virtuoso做模数转换器里面MDAC和OTA 来自手机客户端 合作共赢 2019-5-18 039 合作共赢 2019-5-18 10:23
[2k以上] 2000元,matlab做一个无刷直流电机的pid位置控制仿真 来自手机客户端 合作共赢 2019-5-18 150 合作共赢 2019-5-18 10:18
[1w以上] 万元以上,linux程序做不做 来自手机客户端 合作共赢 2019-5-18 1116 合作共赢 2019-5-18 10:27
[1k以上] 1000元以上,gis可以做地下空间资源评价吗? 来自手机客户端 合作共赢 2019-5-18 144 合作共赢 2019-5-18 10:09
[3k以上] 2500元,图像分割 来自手机客户端 合作共赢 2019-5-18 082 合作共赢 2019-5-18 09:13
[1k以上] 1000元,4个python算法题,online coding,两个小时之内做好 来自手机客户端 合作共赢 2019-5-18 282 合作共赢 2019-5-18 08:51
[1k以下] 400元以上,Matlab浮现一段数据集的设置 来自手机客户端 合作共赢 2019-5-18 136 媛宝宝 2019-5-18 08:48
[1k以下] 400元,matlab做MRIO模型 来自手机客户端 合作共赢 2019-5-18 038 合作共赢 2019-5-18 08:35
[1k以上] 1000元,写一个用粒子群算法结合模拟退火算法 来自手机客户端 合作共赢 2019-5-18 166 合作共赢 2019-5-18 09:58
[1k以下] 800元,使用python,从一堆大文件 来自手机客户端 合作共赢 2019-5-18 2146 合作共赢 2019-5-18 09:31
[1k以上] 1000元,java代写,股票信息系统 attach_img 合作共赢 2019-5-17 276 treenewbee 2019-5-17 23:55
[1k以上] 1000元以上,vissim仿真到路口,做一个仿真 attach_img 合作共赢 2019-5-17 250 合作共赢 2019-5-17 23:49
[1k以上] 1000元,matlab做仿真,就改一下电路图 加库函数 attach_img 合作共赢 2019-5-17 175 媛宝宝 2019-5-17 22:56
[2k以上] 2000元以上,基于tiva单片机的跌到检测 来自手机客户端 合作共赢 2019-5-17 058 合作共赢 2019-5-17 22:49
[5k以上] 5000元以上,图像识别+深度学习,自动按鼠标定位学生 来自手机客户端 合作共赢 2019-5-17 194 合作共赢 2019-5-17 22:53
[2k以上] 1500元以上,abaqus要用到材料应变率子程序建立预应力钢筋混凝土变截面连续式桥梁 来自手机客户端 合作共赢 2019-5-17 054 合作共赢 2019-5-17 22:29
[1k以上] 1000元以上,Matlab减速带优化设计 来自手机客户端 合作共赢 2019-5-17 061 合作共赢 2019-5-17 22:03
[2k以上] 1500元,用matlab guide 做关于语音信号处理方面的东西 来自手机客户端 合作共赢 2019-5-17 154 合作共赢 2019-5-17 22:03
[2k以上] 2000元以上,那能把c#代码改成labview吗 来自手机客户端 合作共赢 2019-5-17 275 合作共赢 2019-5-17 23:48
[1k以上] 1000元以上,数据查找,如果做的好就做实证 来自手机客户端 合作共赢 2019-5-17 180 合作共赢 2019-5-17 20:11
[2k以上] 1600元,matlab仿真海浪模型 来自手机客户端 合作共赢 2019-5-17 173 合作共赢 2019-5-17 20:06
[3k以上] 3000元以上,用python做强化学习 来自手机客户端 合作共赢 2019-5-17 2107 合作共赢 2019-5-17 20:51
[3k以上] 3000元,anylogic做两层的地铁换乘站人流仿真 来自手机客户端 合作共赢 2019-5-17 144 合作共赢 2019-5-17 19:44
[1k以下] 1000元,MATLAB做基于主成分分析 来自手机客户端 合作共赢 2019-5-17 277 媛宝宝 2019-5-17 19:32
[1k以下] 400元以上,matalb做数据处理矩阵 来自手机客户端 合作共赢 2019-5-17 178 合作共赢 2019-5-17 19:31
[3k以上] 3000元以上,爬虫和知识图谱构建 来自手机客户端 合作共赢 2019-5-17 395 合作共赢 2019-5-17 18:56
[3k以上] 3000元,我要爬空气质量数据 attach_img 合作共赢 2019-5-17 247 合作共赢 2019-5-17 18:45
[2k以上] 2000元,NS2软件,做AODV路由协议仿真 来自手机客户端 合作共赢 2019-5-17 044 合作共赢 2019-5-17 18:12
[1k以上] 1000元,matlab模糊控制器 来自手机客户端 合作共赢 2019-5-17 051 合作共赢 2019-5-17 17:23
[2k以上] 1700元,用python做一个研究生信息管理系统 来自手机客户端 合作共赢 2019-5-17 052 合作共赢 2019-5-17 16:45
[1k以上] 1000元,Matlab做智能优化算法 来自手机客户端 合作共赢 2019-5-17 028 合作共赢 2019-5-17 16:44
[1w以上] 1万元,做暖通空这一块的cfd设计 来自手机客户端 合作共赢 2019-5-17 383 合作共赢 2019-5-17 16:59
[3k以上] 3000元,opencv的人脸表情识别,做一个app attach_img 来自手机客户端 合作共赢 2019-5-17 194 合作共赢 2019-5-17 18:07
[1k以上] 1000元,python自动问答系统 来自手机客户端 合作共赢 2019-5-17 169 合作共赢 2019-5-17 16:12
[5k以上] 5000元,用matlab仿真双足四自由度的行走步态 来自手机客户端 合作共赢 2019-5-17 057 合作共赢 2019-5-17 15:56
[3k以上] 3000元,基于opencv的人脸表情识别 来自手机客户端 合作共赢 2019-5-17 575 合作共赢 2019-5-17 16:05
[2k以上] 2000元,爬虫 爬数据 来自手机客户端 合作共赢 2019-5-17 3115 合作共赢 2019-5-17 15:06
[2k以上] 2000元,visvap 做公交优先感应控制 来自手机客户端 合作共赢 2019-5-17 129 合作共赢 2019-5-17 14:58
[1k以下] 400元,先下了java然后有个flut 来自手机客户端 合作共赢 2019-5-17 149 合作共赢 2019-5-17 15:22
[1k以下] 500元,Proteus仿真家庭入侵手机警报系统 来自手机客户端 合作共赢 2019-5-17 044 合作共赢 2019-5-17 14:01
[3k以上] 3000元,swat径流模拟 来自手机客户端 合作共赢 2019-5-17 150 合作共赢 2019-5-17 19:45
[1k以上] 1200元,python 做 股票走向预测 来自手机客户端 合作共赢 2019-5-17 282 合作共赢 2019-5-17 13:39
[5k以上] 5000元,tensorflow做彩色图像的分类 来自手机客户端 合作共赢 2019-5-17 387 合作共赢 2019-5-17 13:41
[2k以上] 2000元,用matlab做pwm直接功率预测可以做吗 来自手机客户端 合作共赢 2019-5-17 166 合作共赢 2019-5-17 13:24
[2k以上] 2000元以上,神经网络做行人检测 来自手机客户端 合作共赢 2019-5-17 264 合作共赢 2019-5-17 13:12
[1k以上] 1000元,Matlab做个小程序,和这本书内容相关就行 来自手机客户端 合作共赢 2019-5-17 191 媛宝宝 2019-5-17 12:35
[3k以上] 3000元,matlab仿真双足四自由度的行走步态 来自手机客户端 合作共赢 2019-5-17 050 合作共赢 2019-5-17 12:16
[2k以上] 2000元以上,用tensorflow识别光纤外观图像 来自手机客户端 合作共赢 2019-5-17 167 合作共赢 2019-5-17 12:51
[2k以上] 2000元,区块链相关的数据统计和图表制作 来自手机客户端 合作共赢 2019-5-17 265 合作共赢 2019-5-17 12:13
[2k以上] 2000元,MATLAB基于Column-generation attach_img 来自手机客户端 合作共赢 2019-5-17 053 合作共赢 2019-5-17 12:07
[2k以上] 2000元,用matlab深度学习的方法做频谱分配可以嘛 来自手机客户端 合作共赢 2019-5-17 045 合作共赢 2019-5-17 11:56
[2k以上] 1700元,matlab 做一个飞机上系统的仿真 来自手机客户端 合作共赢 2019-5-17 067 合作共赢 2019-5-17 11:06
[2k以上] 1500元,图像处理识别右侧读数 来自手机客户端 合作共赢 2019-5-17 174 合作共赢 2019-5-17 10:33
[1k以上] 1000元以上,能做vissim地铁换乘通道的吗 来自手机客户端 合作共赢 2019-5-17 051 合作共赢 2019-5-17 10:27
[1k以上] 1k左右,matlab,路径规划,多机路径规划 来自手机客户端 合作共赢 2019-5-17 173 合作共赢 2019-5-17 10:29
[1k以上] 1000元以上,我想把173项文化遗产分出最相关 一般相关 不相关 来自手机客户端 合作共赢 2019-5-17 160 媛宝宝 2019-5-17 10:16
[1k以下] 400元以上,是matlab做神经网络来 来自手机客户端 合作共赢 2019-5-17 148 媛宝宝 2019-5-17 09:51
[1k以上] 1000元,用python给星体图片降噪 来自手机客户端 合作共赢 2019-5-17 171 合作共赢 2019-5-17 09:33
[3k以上] 3000元以上,用Python+gurobi编的,只差用benders和ccg算法求解了 来自手机客户端 合作共赢 2019-5-17 066 合作共赢 2019-5-17 09:28
[4k以上] 4000元,代写一个python的svm在NYT数据集上提取三元组的模型 来自手机客户端 合作共赢 2019-5-17 1109 合作共赢 2019-5-17 10:54
[1k以上] 1000元以上,Qt做这个界面能吗 来自手机客户端 合作共赢 2019-5-17 4107 合作共赢 2019-5-17 08:59
[5k以上] 5000元以上,代跑python程序,数据量大,35G attach_img 来自手机客户端 合作共赢 2019-5-17 1126 合作共赢 2019-5-17 09:03
[2k以上] 2000元,python做一个关于计算数独的程序 来自手机客户端 合作共赢 2019-5-17 1113 合作共赢 2019-5-17 08:56
[2k以上] 2000元以上,有关集成学习异常值检测的内容,用R语言写 attach_img 来自手机客户端 合作共赢 2019-5-17 160 合作共赢 2019-5-18 17:37
[5k以上] 5000元以上,python实现社交网络影响力最大化模型与算法实现 attach_img 来自手机客户端 合作共赢 2019-5-17 280 合作共赢 2019-5-17 08:46
[1k以下] 400元以上,Matlab做灰色关联度来 来自手机客户端 合作共赢 2019-5-17 150 合作共赢 2019-5-17 08:30
[3k以上] 3000元以上,django运维发布平台能做不? 来自手机客户端 合作共赢 2019-5-16 289 合作共赢 2019-5-16 23:23
[2k以上] 2000元,matlab做逆合成孔径雷达成像的代码 来自手机客户端 合作共赢 2019-5-16 162 合作共赢 2019-5-17 09:40
[1k以上] 1000元以上,matlab 纠错编码 来自手机客户端 合作共赢 2019-5-16 154 媛宝宝 2019-5-16 22:44
[2k以上] 2000元以上,pycharm 软件 做 爬虫 数据清洗 可视化 数据预测 来自手机客户端 合作共赢 2019-5-16 2121 topmati 2019-5-16 23:26
[1k以上] 1000元以上,eclipse,一个小的图书共享系统 来自手机客户端 合作共赢 2019-5-16 065 合作共赢 2019-5-16 22:25
[2k以上] 2000元,这个图是用matlab做出来的吗 来自手机客户端 合作共赢 2019-5-16 3109 合作共赢 2019-5-16 22:18
[1k以上] 1000元,请问能做pscad模型么 来自手机客户端 合作共赢 2019-5-16 050 合作共赢 2019-5-16 22:10
[1k以上] 1500元,加工中心主传动系统设计 机械部分和控制部分 attach_img 来自手机客户端 合作共赢 2019-5-16 046 合作共赢 2019-5-16 22:06
[2k以上] 2000元,面向电磁信号的机器学习 来自手机客户端 合作共赢 2019-5-16 049 合作共赢 2019-5-16 22:05
[3k以上] 3000元,用LSTM模型预测地震发生的时间、地点、震级、震深 来自手机客户端 合作共赢 2019-5-16 275 合作共赢 2019-5-16 21:57
[3k以上] 3000元,matlab做一个MNIST识别,限制权值位宽的深度学习网络 来自手机客户端 合作共赢 2019-5-16 054 合作共赢 2019-5-16 21:52
[1k以上] 1000元以上,使用朴素贝叶斯分类器实现的区域倾向 attach_img 来自手机客户端 合作共赢 2019-5-16 2102 合作共赢 2019-5-16 22:37
[2k以上] 2000元,写matlab写随机森林+rbf神经网络+svm 来自手机客户端 合作共赢 2019-5-16 275 合作共赢 2019-5-16 21:21
[3k以上] 2500元,Python大数据相关做吗 来自手机客户端 合作共赢 2019-5-16 3105 合作共赢 2019-5-16 21:17
[1k以上] 1000元,Matlab做一图形,命中概 来自手机客户端 合作共赢 2019-5-16 168 合作共赢 2019-5-16 21:19
[6k以上] 6000元,激光熔覆,相关的就可以 来自手机客户端 合作共赢 2019-5-16 260 合作共赢 2019-5-16 21:21
[2k以上] 2000元,matlab建模,,匈牙利算法解决人员指派问题 来自手机客户端 合作共赢 2019-5-16 263 合作共赢 2019-5-16 21:18
[5k以上] 5000元,Excel 做统计数据,纸质票据 来自手机客户端 合作共赢 2019-5-16 243 treenewbee 2019-5-16 22:49
[4k以上] 4000元以上,gams用投入产出表分析某一行业对经济的影响 来自手机客户端 合作共赢 2019-5-16 360 合作共赢 2019-5-16 21:16
[2k以上] 2000元,matlab 可以做fbm 模型 来自手机客户端 合作共赢 2019-5-16 055 合作共赢 2019-5-16 20:42
[1k以上] 1000元,网页元素里面有些被隐藏的能显示出来吗 来自手机客户端 合作共赢 2019-5-16 134 topmati 2019-5-16 20:15
[3k以上] 2500元,设计一个八通道的电阻应变片应力采集模块 来自手机客户端 合作共赢 2019-5-16 144 合作共赢 2019-5-16 20:25
[2k以上] 1500元。用opengl做个小游戏多少钱 来自手机客户端 合作共赢 2019-5-16 148 合作共赢 2019-5-17 13:30
[1k以下] 500元,可以做matlab遗传算法不 来自手机客户端 合作共赢 2019-5-16 161 合作共赢 2019-5-16 19:45
[1k以上] 1000元,做cnn对青霉素发酵过程的故障诊断分析 来自手机客户端 合作共赢 2019-5-16 152 合作共赢 2019-5-16 19:45
[1k以上] 1000元以上,matlab图像处理树叶识别 来自手机客户端 合作共赢 2019-5-16 159 合作共赢 2019-5-16 20:11
[2k以上] 2000元以上,图像处理方向的程序接吗 来自手机客户端 合作共赢 2019-5-16 137 topmati 2019-5-16 19:36
[1k以上] 1000元以上,tensorflow框架下实现神经网络分类识别六种数字调制信号 来自手机客户端 合作共赢 2019-5-16 162 合作共赢 2019-5-16 19:50
[2k以上] 2000元,pscad软件与matlab软件结合,做行波故障测距 来自手机客户端 合作共赢 2019-5-16 037 合作共赢 2019-5-16 17:57
[2k以上] 2000元,图像处理方向,工厂内部的异常行为识别 用深度学习来做 来自手机客户端 合作共赢 2019-5-16 288 合作共赢 2019-5-16 19:30
[1k以上] 1000元,matlab环境,用深度学习方法,完成一张果树图片里找出果实 来自手机客户端 合作共赢 2019-5-16 145 合作共赢 2019-5-16 18:05
[3k以上] 3000元,视频处理,最好用matlab,人工智能 来自手机客户端 合作共赢 2019-5-16 080 合作共赢 2019-5-16 17:41
[1k以上] 1000左右,MATLAB做公交最优路线 来自手机客户端 合作共赢 2019-5-16 258 topmati 2019-5-16 17:50
[2k以上] 2000元,matlab做一维负荷序列混 来自手机客户端 合作共赢 2019-5-16 150 媛宝宝 2019-5-16 17:47
[2k以上] 2000左右,ansys模态分析可以做吗 来自手机客户端 合作共赢 2019-5-16 266 合作共赢 2019-5-16 17:36
[1k以下] 500元以内,c语言 龙格库塔方法 来自手机客户端 合作共赢 2019-5-16 160 合作共赢 2019-5-16 17:53
[1k以上] 1000以内,Matlab 区域间的溢出反馈效应 来自手机客户端 合作共赢 2019-5-16 156 合作共赢 2019-5-16 16:32
[1k以上] 1000元,matlab做做这个仿真 attach_img 合作共赢 2019-5-16 187 合作共赢 2019-5-16 16:10
[3k以上] 3000元以上,用cuda将一个1*32 来自手机客户端 合作共赢 2019-5-16 274 合作共赢 2019-5-16 16:16
[1k以上] 1000元,用python做图像相似处理 来自手机客户端 合作共赢 2019-5-16 163 合作共赢 2019-5-16 15:43
[1k以上] 1000元,MATLAB做插入算法 来自手机客户端 合作共赢 2019-5-16 161 ALT 2019-5-16 17:02
[3k以上] 3000元以上,藏宝阁价格监控来自,7x 来自手机客户端 合作共赢 2019-5-16 233 合作共赢 2019-5-16 15:14
[1k以上] 1000元以上,MATLAB仿真,turbo码的性能仿真 来自手机客户端 合作共赢 2019-5-16 143 合作共赢 2019-5-16 15:00
[1w以上] 一万元,xfdtd模拟,RFID超高频天线 来自手机客户端 合作共赢 2019-5-16 055 合作共赢 2019-5-16 14:54
[1k以下] 1000元,silvaco做GaAs基的共振隧穿二极管 来自手机客户端 合作共赢 2019-5-16 031 合作共赢 2019-5-16 14:52
[2k以上] 2000元以上,用CST或ADS软件来设计一款滤波器 来自手机客户端 合作共赢 2019-5-16 037 合作共赢 2019-5-16 14:45
[1k以上] 1000以上,OpenCV特征点匹配来自 来自手机客户端 合作共赢 2019-5-16 152 合作共赢 2019-5-16 14:41
[1k以下] 800元,用matlab的fadtool导出滤波器的系数 来自手机客户端 合作共赢 2019-5-16 145 合作共赢 2019-5-16 14:36
[1k以上] 1000元,Tensorflow改个模型,基本代码都有了,加个判别 来自手机客户端 合作共赢 2019-5-16 279 合作共赢 2019-5-16 14:26
[5k以上] 5000元,关于pmsm的matlab仿真 来自手机客户端 合作共赢 2019-5-16 143 合作共赢 2019-5-16 14:08
下一页 »

快速发帖

还可输入 80 个字符
您需要登录后才可以发帖 登录 | 注册秒答

本版积分规则

QQ|价格查询|地图|秒答网 ( 粤ICP备15056337号-1 )

GMT+8, 2019-6-21 05:25

Powered by Discuz! X3.4

© 2001-2017 Comsenz Inc.

返回顶部 返回版块